sensor_id;sensor_type;location;lat;lon;timestamp;P1;durP1;ratioP1;P2;durP2;ratioP2
20462;SDS011;10390;53.566;9.980;2024-02-15T00:01:48;7.90;;;5.00;;
20462;SDS011;10390;53.566;9.980;2024-02-15T00:04:13;8.45;;;5.00;;
20462;SDS011;10390;53.566;9.980;2024-02-15T00:06:39;6.50;;;5.15;;
20462;SDS011;10390;53.566;9.980;2024-02-15T00:09:05;5.90;;;4.95;;
20462;SDS011;10390;53.566;9.980;2024-02-15T00:11:30;7.40;;;5.65;;
20462;SDS011;10390;53.566;9.980;2024-02-15T00:13:56;7.15;;;5.50;;
20462;SDS011;10390;53.566;9.980;2024-02-15T00:16:22;7.00;;;5.20;;
20462;SDS011;10390;53.566;9.980;2024-02-15T00:18:48;5.85;;;5.25;;
20462;SDS011;10390;53.566;9.980;2024-02-15T00:21:14;6.13;;;5.05;;
20462;SDS011;10390;53.566;9.980;2024-02-15T00:23:41;6.07;;;5.20;;
20462;SDS011;10390;53.566;9.980;2024-02-15T00:26:07;6.60;;;5.10;;
20462;SDS011;10390;53.566;9.980;2024-02-15T00:28:35;6.50;;;5.47;;
20462;SDS011;10390;53.566;9.980;2024-02-15T00:31:01;6.82;;;5.13;;
20462;SDS011;10390;53.566;9.980;2024-02-15T00:33:27;7.90;;;5.32;;
20462;SDS011;10390;53.566;9.980;2024-02-15T00:35:54;7.38;;;5.57;;
20462;SDS011;10390;53.566;9.980;2024-02-15T00:38:19;7.30;;;5.72;;
20462;SDS011;10390;53.566;9.980;2024-02-15T00:40:45;6.25;;;5.32;;
20462;SDS011;10390;53.566;9.980;2024-02-15T00:43:11;6.07;;;5.03;;
20462;SDS011;10390;53.566;9.980;2024-02-15T00:45:36;8.48;;;5.65;;
20462;SDS011;10390;53.566;9.980;2024-02-15T00:48:02;6.22;;;5.22;;
20462;SDS011;10390;53.566;9.980;2024-02-15T00:50:28;7.72;;;5.93;;
20462;SDS011;10390;53.566;9.980;2024-02-15T00:52:54;6.53;;;5.38;;
20462;SDS011;10390;53.566;9.980;2024-02-15T00:55:19;6.90;;;5.88;;
20462;SDS011;10390;53.566;9.980;2024-02-15T00:57:45;5.97;;;4.78;;
20462;SDS011;10390;53.566;9.980;2024-02-15T01:00:10;6.25;;;5.40;;
20462;SDS011;10390;53.566;9.980;2024-02-15T01:02:38;6.30;;;4.97;;
20462;SDS011;10390;53.566;9.980;2024-02-15T01:05:03;6.88;;;5.25;;
20462;SDS011;10390;53.566;9.980;2024-02-15T01:07:29;5.80;;;5.13;;
20462;SDS011;10390;53.566;9.980;2024-02-15T01:09:55;6.75;;;5.70;;
20462;SDS011;10390;53.566;9.980;2024-02-15T01:12:20;7.28;;;5.55;;
20462;SDS011;10390;53.566;9.980;2024-02-15T01:14:46;6.25;;;5.13;;
20462;SDS011;10390;53.566;9.980;2024-02-15T01:17:12;7.28;;;5.32;;
20462;SDS011;10390;53.566;9.980;2024-02-15T01:19:38;6.72;;;5.20;;
20462;SDS011;10390;53.566;9.980;2024-02-15T01:22:04;8.30;;;5.30;;
20462;SDS011;10390;53.566;9.980;2024-02-15T01:24:31;6.60;;;5.18;;
20462;SDS011;10390;53.566;9.980;2024-02-15T01:26:57;5.40;;;4.90;;
20462;SDS011;10390;53.566;9.980;2024-02-15T01:29:23;5.72;;;5.10;;
20462;SDS011;10390;53.566;9.980;2024-02-15T01:31:50;7.75;;;5.80;;
20462;SDS011;10390;53.566;9.980;2024-02-15T01:34:16;6.75;;;5.10;;
20462;SDS011;10390;53.566;9.980;2024-02-15T01:36:42;6.28;;;5.10;;
20462;SDS011;10390;53.566;9.980;2024-02-15T01:39:07;6.15;;;5.07;;
20462;SDS011;10390;53.566;9.980;2024-02-15T01:41:33;6.35;;;5.32;;
20462;SDS011;10390;53.566;9.980;2024-02-15T01:43:58;6.38;;;4.80;;
20462;SDS011;10390;53.566;9.980;2024-02-15T01:46:24;7.22;;;5.30;;
20462;SDS011;10390;53.566;9.980;2024-02-15T01:48:50;5.90;;;5.00;;
20462;SDS011;10390;53.566;9.980;2024-02-15T01:51:16;7.90;;;5.07;;
20462;SDS011;10390;53.566;9.980;2024-02-15T01:53:43;5.18;;;4.65;;
20462;SDS011;10390;53.566;9.980;2024-02-15T01:56:09;6.75;;;5.07;;
20462;SDS011;10390;53.566;9.980;2024-02-15T01:58:39;6.60;;;5.60;;
20462;SDS011;10390;53.566;9.980;2024-02-15T02:01:06;7.15;;;5.03;;
20462;SDS011;10390;53.566;9.980;2024-02-15T02:03:32;6.63;;;5.30;;
20462;SDS011;10390;53.566;9.980;2024-02-15T02:05:57;6.85;;;5.00;;
20462;SDS011;10390;53.566;9.980;2024-02-15T02:08:25;7.15;;;5.13;;
20462;SDS011;10390;53.566;9.980;2024-02-15T02:10:51;7.25;;;5.07;;
20462;SDS011;10390;53.566;9.980;2024-02-15T02:13:17;6.43;;;5.25;;
20462;SDS011;10390;53.566;9.980;2024-02-15T02:15:43;6.50;;;5.28;;
20462;SDS011;10390;53.566;9.980;2024-02-15T02:18:09;6.15;;;4.93;;
20462;SDS011;10390;53.566;9.980;2024-02-15T02:20:42;7.93;;;5.45;;
20462;SDS011;10390;53.566;9.980;2024-02-15T02:23:09;5.85;;;4.90;;
20462;SDS011;10390;53.566;9.980;2024-02-15T02:25:39;8.27;;;4.97;;
20462;SDS011;10390;53.566;9.980;2024-02-15T02:28:07;7.55;;;5.55;;
20462;SDS011;10390;53.566;9.980;2024-02-15T02:30:33;6.40;;;5.13;;
20462;SDS011;10390;53.566;9.980;2024-02-15T02:33:00;5.40;;;4.72;;
20462;SDS011;10390;53.566;9.980;2024-02-15T02:35:26;5.50;;;4.90;;
20462;SDS011;10390;53.566;9.980;2024-02-15T02:37:54;5.97;;;5.10;;
20462;SDS011;10390;53.566;9.980;2024-02-15T02:40:22;6.95;;;5.18;;
20462;SDS011;10390;53.566;9.980;2024-02-15T02:42:54;6.13;;;5.18;;
20462;SDS011;10390;53.566;9.980;2024-02-15T02:45:21;5.93;;;4.80;;
20462;SDS011;10390;53.566;9.980;2024-02-15T02:47:51;5.88;;;4.40;;
20462;SDS011;10390;53.566;9.980;2024-02-15T02:50:17;5.90;;;5.13;;
20462;SDS011;10390;53.566;9.980;2024-02-15T02:52:44;5.43;;;4.32;;
20462;SDS011;10390;53.566;9.980;2024-02-15T02:55:09;5.43;;;4.63;;
20462;SDS011;10390;53.566;9.980;2024-02-15T02:57:36;5.63;;;4.70;;
20462;SDS011;10390;53.566;9.980;2024-02-15T03:00:05;5.20;;;4.30;;
20462;SDS011;10390;53.566;9.980;2024-02-15T03:02:38;6.22;;;4.55;;
20462;SDS011;10390;53.566;9.980;2024-02-15T03:05:04;7.38;;;4.72;;
20462;SDS011;10390;53.566;9.980;2024-02-15T03:07:37;6.40;;;4.72;;
20462;SDS011;10390;53.566;9.980;2024-02-15T03:10:05;7.05;;;4.43;;
20462;SDS011;10390;53.566;9.980;2024-02-15T03:12:35;6.03;;;4.68;;
20462;SDS011;10390;53.566;9.980;2024-02-15T03:15:04;6.93;;;4.05;;
20462;SDS011;10390;53.566;9.980;2024-02-15T03:17:46;6.47;;;4.82;;
20462;SDS011;10390;53.566;9.980;2024-02-15T03:20:12;5.20;;;4.40;;
20462;SDS011;10390;53.566;9.980;2024-02-15T03:22:58;5.57;;;4.15;;
20462;SDS011;10390;53.566;9.980;2024-02-15T03:25:25;5.45;;;3.80;;
20462;SDS011;10390;53.566;9.980;2024-02-15T03:27:54;6.60;;;4.72;;
20462;SDS011;10390;53.566;9.980;2024-02-15T03:30:21;8.55;;;4.60;;
20462;SDS011;10390;53.566;9.980;2024-02-15T03:32:47;5.60;;;4.40;;
20462;SDS011;10390;53.566;9.980;2024-02-15T03:35:14;5.78;;;4.25;;
20462;SDS011;10390;53.566;9.980;2024-02-15T03:37:40;4.85;;;4.35;;
20462;SDS011;10390;53.566;9.980;2024-02-15T03:40:07;5.40;;;4.60;;
20462;SDS011;10390;53.566;9.980;2024-02-15T03:42:33;5.25;;;4.40;;
20462;SDS011;10390;53.566;9.980;2024-02-15T03:45:05;5.20;;;4.38;;
20462;SDS011;10390;53.566;9.980;2024-02-15T03:47:32;5.70;;;4.57;;
20462;SDS011;10390;53.566;9.980;2024-02-15T03:49:58;5.07;;;4.40;;
20462;SDS011;10390;53.566;9.980;2024-02-15T03:52:24;8.18;;;4.72;;
20462;SDS011;10390;53.566;9.980;2024-02-15T03:54:50;4.72;;;3.97;;
20462;SDS011;10390;53.566;9.980;2024-02-15T03:57:15;6.32;;;4.70;;
20462;SDS011;10390;53.566;9.980;2024-02-15T03:59:42;5.75;;;4.10;;
20462;SDS011;10390;53.566;9.980;2024-02-15T04:02:07;6.35;;;4.10;;
20462;SDS011;10390;53.566;9.980;2024-02-15T04:04:37;6.85;;;4.00;;
20462;SDS011;10390;53.566;9.980;2024-02-15T04:07:07;5.35;;;4.25;;
20462;SDS011;10390;53.566;9.980;2024-02-15T04:09:32;5.80;;;4.25;;
20462;SDS011;10390;53.566;9.980;2024-02-15T04:12:00;6.00;;;4.03;;
20462;SDS011;10390;53.566;9.980;2024-02-15T04:14:26;5.45;;;4.55;;
20462;SDS011;10390;53.566;9.980;2024-02-15T04:16:52;5.93;;;4.32;;
20462;SDS011;10390;53.566;9.980;2024-02-15T04:19:17;6.47;;;4.57;;
20462;SDS011;10390;53.566;9.980;2024-02-15T04:21:47;5.85;;;4.63;;
20462;SDS011;10390;53.566;9.980;2024-02-15T04:24:12;6.03;;;4.00;;
20462;SDS011;10390;53.566;9.980;2024-02-15T04:26:39;5.80;;;4.25;;
20462;SDS011;10390;53.566;9.980;2024-02-15T04:29:05;6.00;;;4.45;;
20462;SDS011;10390;53.566;9.980;2024-02-15T04:31:33;7.05;;;4.40;;
20462;SDS011;10390;53.566;9.980;2024-02-15T04:34:02;5.28;;;3.60;;
20462;SDS011;10390;53.566;9.980;2024-02-15T04:36:28;5.35;;;4.00;;
20462;SDS011;10390;53.566;9.980;2024-02-15T04:38:58;6.03;;;4.22;;
20462;SDS011;10390;53.566;9.980;2024-02-15T04:41:26;6.43;;;4.57;;
20462;SDS011;10390;53.566;9.980;2024-02-15T04:43:52;5.55;;;4.00;;
20462;SDS011;10390;53.566;9.980;2024-02-15T04:46:18;6.57;;;4.10;;
20462;SDS011;10390;53.566;9.980;2024-02-15T04:48:46;6.07;;;4.28;;
20462;SDS011;10390;53.566;9.980;2024-02-15T04:51:14;5.05;;;3.95;;
20462;SDS011;10390;53.566;9.980;2024-02-15T04:53:40;5.93;;;4.32;;
20462;SDS011;10390;53.566;9.980;2024-02-15T04:56:06;5.10;;;4.45;;
20462;SDS011;10390;53.566;9.980;2024-02-15T04:58:36;5.07;;;4.50;;
20462;SDS011;10390;53.566;9.980;2024-02-15T05:01:03;7.78;;;5.40;;
20462;SDS011;10390;53.566;9.980;2024-02-15T05:03:30;5.68;;;4.88;;
20462;SDS011;10390;53.566;9.980;2024-02-15T05:06:00;6.10;;;5.50;;
20462;SDS011;10390;53.566;9.980;2024-02-15T05:08:26;5.88;;;4.90;;
20462;SDS011;10390;53.566;9.980;2024-02-15T05:10:53;6.00;;;5.43;;
20462;SDS011;10390;53.566;9.980;2024-02-15T05:13:21;5.47;;;4.93;;
20462;SDS011;10390;53.566;9.980;2024-02-15T05:15:49;6.03;;;5.45;;
20462;SDS011;10390;53.566;9.980;2024-02-15T05:18:15;5.07;;;4.57;;
20462;SDS011;10390;53.566;9.980;2024-02-15T05:20:42;6.05;;;5.20;;
20462;SDS011;10390;53.566;9.980;2024-02-15T05:23:08;6.35;;;5.60;;
20462;SDS011;10390;53.566;9.980;2024-02-15T05:25:33;5.65;;;5.00;;
20462;SDS011;10390;53.566;9.980;2024-02-15T05:28:00;5.63;;;5.03;;
20462;SDS011;10390;53.566;9.980;2024-02-15T05:30:26;5.60;;;5.10;;
20462;SDS011;10390;53.566;9.980;2024-02-15T05:32:52;6.72;;;5.00;;
20462;SDS011;10390;53.566;9.980;2024-02-15T05:35:18;6.45;;;4.97;;
20462;SDS011;10390;53.566;9.980;2024-02-15T05:37:44;6.03;;;5.38;;
20462;SDS011;10390;53.566;9.980;2024-02-15T05:40:11;6.32;;;5.15;;
20462;SDS011;10390;53.566;9.980;2024-02-15T05:42:41;5.38;;;4.88;;
20462;SDS011;10390;53.566;9.980;2024-02-15T05:47:54;6.32;;;5.63;;
20462;SDS011;10390;53.566;9.980;2024-02-15T05:50:20;5.85;;;4.45;;
20462;SDS011;10390;53.566;9.980;2024-02-15T05:52:46;5.25;;;4.75;;
20462;SDS011;10390;53.566;9.980;2024-02-15T05:55:12;6.20;;;5.38;;
20462;SDS011;10390;53.566;9.980;2024-02-15T05:57:42;6.80;;;4.50;;
20462;SDS011;10390;53.566;9.980;2024-02-15T06:00:08;5.50;;;4.90;;
20462;SDS011;10390;53.566;9.980;2024-02-15T06:02:35;7.88;;;4.97;;
20462;SDS011;10390;53.566;9.980;2024-02-15T06:05:01;6.47;;;5.88;;
20462;SDS011;10390;53.566;9.980;2024-02-15T06:07:29;7.55;;;5.72;;
20462;SDS011;10390;53.566;9.980;2024-02-15T06:09:57;6.88;;;5.70;;
20462;SDS011;10390;53.566;9.980;2024-02-15T06:12:28;8.73;;;5.63;;
20462;SDS011;10390;53.566;9.980;2024-02-15T06:14:53;6.22;;;5.20;;
20462;SDS011;10390;53.566;9.980;2024-02-15T06:17:19;5.88;;;5.05;;
20462;SDS011;10390;53.566;9.980;2024-02-15T06:19:45;6.70;;;6.10;;
20462;SDS011;10390;53.566;9.980;2024-02-15T06:22:10;7.53;;;5.50;;
20462;SDS011;10390;53.566;9.980;2024-02-15T06:24:37;7.13;;;5.25;;
20462;SDS011;10390;53.566;9.980;2024-02-15T06:27:03;6.40;;;5.47;;
20462;SDS011;10390;53.566;9.980;2024-02-15T06:29:31;7.97;;;4.95;;
20462;SDS011;10390;53.566;9.980;2024-02-15T06:32:15;8.70;;;5.55;;
20462;SDS011;10390;53.566;9.980;2024-02-15T06:34:59;9.88;;;5.15;;
20462;SDS011;10390;53.566;9.980;2024-02-15T06:37:43;8.20;;;5.38;;
20462;SDS011;10390;53.566;9.980;2024-02-15T06:40:27;9.02;;;5.82;;
20462;SDS011;10390;53.566;9.980;2024-02-15T06:42:53;6.97;;;5.28;;
20462;SDS011;10390;53.566;9.980;2024-02-15T06:45:19;9.27;;;5.80;;
20462;SDS011;10390;53.566;9.980;2024-02-15T06:47:45;11.15;;;5.70;;
20462;SDS011;10390;53.566;9.980;2024-02-15T06:50:11;11.90;;;6.72;;
20462;SDS011;10390;53.566;9.980;2024-02-15T06:52:42;8.95;;;5.88;;
20462;SDS011;10390;53.566;9.980;2024-02-15T06:55:08;10.73;;;5.70;;
20462;SDS011;10390;53.566;9.980;2024-02-15T06:57:36;10.27;;;5.53;;
20462;SDS011;10390;53.566;9.980;2024-02-15T07:00:06;9.25;;;5.38;;
20462;SDS011;10390;53.566;9.980;2024-02-15T07:02:33;7.75;;;4.60;;
20462;SDS011;10390;53.566;9.980;2024-02-15T07:04:59;6.95;;;5.40;;
20462;SDS011;10390;53.566;9.980;2024-02-15T07:07:24;8.43;;;5.50;;
20462;SDS011;10390;53.566;9.980;2024-02-15T07:09:50;9.40;;;4.65;;
20462;SDS011;10390;53.566;9.980;2024-02-15T07:12:16;6.82;;;5.18;;
20462;SDS011;10390;53.566;9.980;2024-02-15T07:14:44;11.82;;;5.75;;
20462;SDS011;10390;53.566;9.980;2024-02-15T07:17:11;11.52;;;5.30;;
20462;SDS011;10390;53.566;9.980;2024-02-15T07:19:37;6.32;;;5.20;;
20462;SDS011;10390;53.566;9.980;2024-02-15T07:22:06;9.48;;;5.45;;
20462;SDS011;10390;53.566;9.980;2024-02-15T07:24:32;8.23;;;5.78;;
20462;SDS011;10390;53.566;9.980;2024-02-15T07:26:58;8.95;;;5.28;;
20462;SDS011;10390;53.566;9.980;2024-02-15T07:29:24;9.75;;;5.57;;
20462;SDS011;10390;53.566;9.980;2024-02-15T07:31:50;10.30;;;5.45;;
20462;SDS011;10390;53.566;9.980;2024-02-15T07:34:16;12.70;;;5.63;;
20462;SDS011;10390;53.566;9.980;2024-02-15T07:36:42;6.80;;;4.70;;
20462;SDS011;10390;53.566;9.980;2024-02-15T07:39:08;8.52;;;5.20;;
20462;SDS011;10390;53.566;9.980;2024-02-15T07:41:37;9.98;;;5.40;;
20462;SDS011;10390;53.566;9.980;2024-02-15T07:44:04;12.13;;;5.85;;
20462;SDS011;10390;53.566;9.980;2024-02-15T07:46:29;9.52;;;5.78;;
20462;SDS011;10390;53.566;9.980;2024-02-15T07:48:55;8.82;;;5.40;;
20462;SDS011;10390;53.566;9.980;2024-02-15T07:51:22;8.70;;;5.95;;
20462;SDS011;10390;53.566;9.980;2024-02-15T07:53:48;8.68;;;5.63;;
20462;SDS011;10390;53.566;9.980;2024-02-15T07:56:15;10.23;;;5.53;;
20462;SDS011;10390;53.566;9.980;2024-02-15T07:58:42;9.73;;;5.63;;
20462;SDS011;10390;53.566;9.980;2024-02-15T08:01:15;8.68;;;5.30;;
20462;SDS011;10390;53.566;9.980;2024-02-15T08:03:41;9.90;;;4.93;;
20462;SDS011;10390;53.566;9.980;2024-02-15T08:06:10;8.55;;;5.32;;
20462;SDS011;10390;53.566;9.980;2024-02-15T08:08:41;8.75;;;5.35;;
20462;SDS011;10390;53.566;9.980;2024-02-15T08:11:10;7.45;;;5.43;;
20462;SDS011;10390;53.566;9.980;2024-02-15T08:14:00;6.82;;;4.97;;
20462;SDS011;10390;53.566;9.980;2024-02-15T08:16:25;7.28;;;5.20;;
20462;SDS011;10390;53.566;9.980;2024-02-15T08:18:54;7.40;;;5.15;;
20462;SDS011;10390;53.566;9.980;2024-02-15T08:21:26;7.35;;;4.95;;
20462;SDS011;10390;53.566;9.980;2024-02-15T08:23:54;8.82;;;5.30;;
20462;SDS011;10390;53.566;9.980;2024-02-15T08:26:20;7.45;;;5.25;;
20462;SDS011;10390;53.566;9.980;2024-02-15T08:28:46;8.35;;;5.43;;
20462;SDS011;10390;53.566;9.980;2024-02-15T08:31:12;9.38;;;5.43;;
20462;SDS011;10390;53.566;9.980;2024-02-15T08:33:40;6.75;;;5.47;;
20462;SDS011;10390;53.566;9.980;2024-02-15T08:36:07;6.38;;;5.47;;
20462;SDS011;10390;53.566;9.980;2024-02-15T08:38:32;8.13;;;5.47;;
20462;SDS011;10390;53.566;9.980;2024-02-15T08:40:59;7.50;;;5.38;;
20462;SDS011;10390;53.566;9.980;2024-02-15T08:43:24;8.60;;;5.80;;
20462;SDS011;10390;53.566;9.980;2024-02-15T08:45:50;6.60;;;5.55;;
20462;SDS011;10390;53.566;9.980;2024-02-15T08:48:16;13.95;;;6.20;;
20462;SDS011;10390;53.566;9.980;2024-02-15T08:50:42;11.25;;;6.60;;
20462;SDS011;10390;53.566;9.980;2024-02-15T08:53:10;7.22;;;5.78;;
20462;SDS011;10390;53.566;9.980;2024-02-15T08:55:36;8.20;;;5.38;;
20462;SDS011;10390;53.566;9.980;2024-02-15T08:58:01;5.95;;;5.15;;
20462;SDS011;10390;53.566;9.980;2024-02-15T09:00:28;7.20;;;5.20;;
20462;SDS011;10390;53.566;9.980;2024-02-15T09:02:54;9.57;;;5.25;;
20462;SDS011;10390;53.566;9.980;2024-02-15T09:05:22;8.00;;;4.57;;
20462;SDS011;10390;53.566;9.980;2024-02-15T09:07:47;7.65;;;4.72;;
20462;SDS011;10390;53.566;9.980;2024-02-15T09:10:15;7.78;;;4.97;;
20462;SDS011;10390;53.566;9.980;2024-02-15T09:12:44;7.75;;;5.22;;
20462;SDS011;10390;53.566;9.980;2024-02-15T09:15:14;7.45;;;5.20;;
20462;SDS011;10390;53.566;9.980;2024-02-15T09:17:40;7.28;;;5.25;;
20462;SDS011;10390;53.566;9.980;2024-02-15T09:22:33;7.38;;;5.55;;
20462;SDS011;10390;53.566;9.980;2024-02-15T09:25:01;7.65;;;5.70;;
20462;SDS011;10390;53.566;9.980;2024-02-15T09:27:27;7.43;;;5.10;;
20462;SDS011;10390;53.566;9.980;2024-02-15T09:29:53;8.98;;;5.30;;
20462;SDS011;10390;53.566;9.980;2024-02-15T09:32:20;8.45;;;5.53;;
20462;SDS011;10390;53.566;9.980;2024-02-15T09:34:47;7.65;;;5.10;;
20462;SDS011;10390;53.566;9.980;2024-02-15T09:37:13;8.27;;;4.70;;
20462;SDS011;10390;53.566;9.980;2024-02-15T09:39:39;6.85;;;5.53;;
20462;SDS011;10390;53.566;9.980;2024-02-15T09:42:04;6.28;;;5.15;;
20462;SDS011;10390;53.566;9.980;2024-02-15T09:44:30;6.22;;;5.47;;
20462;SDS011;10390;53.566;9.980;2024-02-15T09:47:02;6.47;;;4.78;;
20462;SDS011;10390;53.566;9.980;2024-02-15T09:49:33;7.78;;;5.30;;
20462;SDS011;10390;53.566;9.980;2024-02-15T09:52:06;7.75;;;6.32;;
20462;SDS011;10390;53.566;9.980;2024-02-15T09:54:41;7.00;;;6.20;;
20462;SDS011;10390;53.566;9.980;2024-02-15T09:57:10;9.40;;;6.70;;
20462;SDS011;10390;53.566;9.980;2024-02-15T09:59:39;6.03;;;4.80;;
20462;SDS011;10390;53.566;9.980;2024-02-15T10:02:06;6.20;;;5.13;;
20462;SDS011;10390;53.566;9.980;2024-02-15T10:04:41;7.53;;;4.55;;
20462;SDS011;10390;53.566;9.980;2024-02-15T10:07:07;7.13;;;4.85;;
20462;SDS011;10390;53.566;9.980;2024-02-15T10:09:34;7.35;;;4.93;;
20462;SDS011;10390;53.566;9.980;2024-02-15T10:12:01;6.35;;;4.90;;
20462;SDS011;10390;53.566;9.980;2024-02-15T10:14:28;7.68;;;5.60;;
20462;SDS011;10390;53.566;9.980;2024-02-15T10:16:55;6.30;;;5.70;;
20462;SDS011;10390;53.566;9.980;2024-02-15T10:19:21;5.95;;;4.70;;
20462;SDS011;10390;53.566;9.980;2024-02-15T10:21:51;6.45;;;5.18;;
20462;SDS011;10390;53.566;9.980;2024-02-15T10:24:20;6.32;;;4.95;;
20462;SDS011;10390;53.566;9.980;2024-02-15T10:26:48;6.72;;;5.55;;
20462;SDS011;10390;53.566;9.980;2024-02-15T10:29:14;5.78;;;4.88;;
20462;SDS011;10390;53.566;9.980;2024-02-15T10:31:54;6.60;;;4.80;;
20462;SDS011;10390;53.566;9.980;2024-02-15T10:34:24;5.15;;;4.18;;
20462;SDS011;10390;53.566;9.980;2024-02-15T10:39:38;6.05;;;4.95;;
20462;SDS011;10390;53.566;9.980;2024-02-15T10:42:06;6.82;;;4.40;;
20462;SDS011;10390;53.566;9.980;2024-02-15T10:44:32;6.22;;;4.70;;
20462;SDS011;10390;53.566;9.980;2024-02-15T10:47:01;6.13;;;4.70;;
20462;SDS011;10390;53.566;9.980;2024-02-15T10:49:31;7.22;;;5.00;;
20462;SDS011;10390;53.566;9.980;2024-02-15T10:51:58;5.78;;;4.78;;
20462;SDS011;10390;53.566;9.980;2024-02-15T10:57:05;6.75;;;4.93;;
20462;SDS011;10390;53.566;9.980;2024-02-15T10:59:32;6.55;;;5.38;;
20462;SDS011;10390;53.566;9.980;2024-02-15T11:02:02;5.95;;;4.70;;
20462;SDS011;10390;53.566;9.980;2024-02-15T11:04:45;6.57;;;5.05;;
20462;SDS011;10390;53.566;9.980;2024-02-15T11:07:12;5.32;;;4.72;;
20462;SDS011;10390;53.566;9.980;2024-02-15T11:09:38;5.90;;;5.30;;
20462;SDS011;10390;53.566;9.980;2024-02-15T11:12:05;6.45;;;5.18;;
20462;SDS011;10390;53.566;9.980;2024-02-15T11:14:31;5.97;;;5.40;;
20462;SDS011;10390;53.566;9.980;2024-02-15T11:16:59;6.47;;;4.88;;
20462;SDS011;10390;53.566;9.980;2024-02-15T11:19:39;5.97;;;4.93;;
20462;SDS011;10390;53.566;9.980;2024-02-15T11:22:10;5.47;;;4.57;;
20462;SDS011;10390;53.566;9.980;2024-02-15T11:24:37;7.32;;;4.85;;
20462;SDS011;10390;53.566;9.980;2024-02-15T11:27:13;5.63;;;5.13;;
20462;SDS011;10390;53.566;9.980;2024-02-15T11:32:35;5.18;;;4.55;;
20462;SDS011;10390;53.566;9.980;2024-02-15T11:35:20;5.78;;;5.18;;
20462;SDS011;10390;53.566;9.980;2024-02-15T11:40:16;7.80;;;5.30;;
20462;SDS011;10390;53.566;9.980;2024-02-15T11:42:45;6.15;;;4.57;;
20462;SDS011;10390;53.566;9.980;2024-02-15T11:45:12;5.07;;;4.30;;
20462;SDS011;10390;53.566;9.980;2024-02-15T11:47:40;7.07;;;4.80;;
20462;SDS011;10390;53.566;9.980;2024-02-15T11:50:13;5.30;;;4.80;;
20462;SDS011;10390;53.566;9.980;2024-02-15T11:52:43;5.50;;;4.93;;
20462;SDS011;10390;53.566;9.980;2024-02-15T11:55:10;5.78;;;4.50;;
20462;SDS011;10390;53.566;9.980;2024-02-15T11:57:38;5.68;;;4.80;;
20462;SDS011;10390;53.566;9.980;2024-02-15T12:00:21;5.97;;;5.15;;
20462;SDS011;10390;53.566;9.980;2024-02-15T12:03:09;6.20;;;5.18;;
20462;SDS011;10390;53.566;9.980;2024-02-15T12:05:54;5.72;;;5.10;;
20462;SDS011;10390;53.566;9.980;2024-02-15T12:08:39;6.03;;;4.72;;
20462;SDS011;10390;53.566;9.980;2024-02-15T12:11:23;6.57;;;5.07;;
20462;SDS011;10390;53.566;9.980;2024-02-15T12:14:11;5.40;;;4.85;;
20462;SDS011;10390;53.566;9.980;2024-02-15T12:17:03;5.18;;;4.68;;
20462;SDS011;10390;53.566;9.980;2024-02-15T12:19:49;5.88;;;5.20;;
20462;SDS011;10390;53.566;9.980;2024-02-15T12:22:23;6.20;;;5.03;;
20462;SDS011;10390;53.566;9.980;2024-02-15T12:27:20;6.20;;;5.10;;
20462;SDS011;10390;53.566;9.980;2024-02-15T12:29:52;5.70;;;5.10;;
20462;SDS011;10390;53.566;9.980;2024-02-15T12:32:22;5.70;;;5.07;;
20462;SDS011;10390;53.566;9.980;2024-02-15T12:34:48;5.95;;;5.18;;
20462;SDS011;10390;53.566;9.980;2024-02-15T12:37:17;5.65;;;5.05;;
20462;SDS011;10390;53.566;9.980;2024-02-15T12:39:43;5.70;;;5.10;;
20462;SDS011;10390;53.566;9.980;2024-02-15T12:42:09;6.03;;;4.82;;
20462;SDS011;10390;53.566;9.980;2024-02-15T12:44:35;6.80;;;5.13;;
20462;SDS011;10390;53.566;9.980;2024-02-15T12:47:01;5.88;;;5.28;;
20462;SDS011;10390;53.566;9.980;2024-02-15T12:49:29;5.63;;;4.68;;
20462;SDS011;10390;53.566;9.980;2024-02-15T12:55:06;6.38;;;5.30;;
20462;SDS011;10390;53.566;9.980;2024-02-15T12:57:35;7.85;;;5.32;;
20462;SDS011;10390;53.566;9.980;2024-02-15T13:00:02;5.47;;;4.90;;
20462;SDS011;10390;53.566;9.980;2024-02-15T13:02:36;6.18;;;5.47;;
20462;SDS011;10390;53.566;9.980;2024-02-15T13:05:03;7.47;;;5.75;;
20462;SDS011;10390;53.566;9.980;2024-02-15T13:07:29;6.03;;;5.30;;
20462;SDS011;10390;53.566;9.980;2024-02-15T13:09:55;7.57;;;5.05;;
20462;SDS011;10390;53.566;9.980;2024-02-15T13:12:22;5.93;;;4.80;;
20462;SDS011;10390;53.566;9.980;2024-02-15T13:14:48;6.53;;;5.85;;
20462;SDS011;10390;53.566;9.980;2024-02-15T13:17:15;9.07;;;5.13;;
20462;SDS011;10390;53.566;9.980;2024-02-15T13:19:45;7.40;;;4.68;;
20462;SDS011;10390;53.566;9.980;2024-02-15T13:22:12;5.82;;;4.65;;
20462;SDS011;10390;53.566;9.980;2024-02-15T13:24:40;5.85;;;4.90;;
20462;SDS011;10390;53.566;9.980;2024-02-15T13:27:07;8.13;;;4.88;;
20462;SDS011;10390;53.566;9.980;2024-02-15T13:29:37;6.60;;;4.60;;
20462;SDS011;10390;53.566;9.980;2024-02-15T13:32:03;8.80;;;4.93;;
20462;SDS011;10390;53.566;9.980;2024-02-15T13:34:30;7.13;;;5.30;;
20462;SDS011;10390;53.566;9.980;2024-02-15T13:36:58;11.93;;;5.40;;
20462;SDS011;10390;53.566;9.980;2024-02-15T13:39:26;5.85;;;4.75;;
20462;SDS011;10390;53.566;9.980;2024-02-15T13:41:57;6.40;;;5.00;;
20462;SDS011;10390;53.566;9.980;2024-02-15T13:44:26;10.07;;;4.70;;
20462;SDS011;10390;53.566;9.980;2024-02-15T13:46:52;7.32;;;5.18;;
20462;SDS011;10390;53.566;9.980;2024-02-15T13:49:21;6.75;;;4.70;;
20462;SDS011;10390;53.566;9.980;2024-02-15T13:51:47;5.80;;;4.72;;
20462;SDS011;10390;53.566;9.980;2024-02-15T13:54:12;10.77;;;5.32;;
20462;SDS011;10390;53.566;9.980;2024-02-15T13:56:38;9.07;;;5.68;;
20462;SDS011;10390;53.566;9.980;2024-02-15T13:59:04;9.75;;;5.30;;
20462;SDS011;10390;53.566;9.980;2024-02-15T14:01:31;9.00;;;5.38;;
20462;SDS011;10390;53.566;9.980;2024-02-15T14:03:56;9.60;;;5.40;;
20462;SDS011;10390;53.566;9.980;2024-02-15T14:06:22;7.50;;;5.05;;
20462;SDS011;10390;53.566;9.980;2024-02-15T14:08:48;10.02;;;5.47;;
20462;SDS011;10390;53.566;9.980;2024-02-15T14:11:15;6.95;;;5.30;;
20462;SDS011;10390;53.566;9.980;2024-02-15T14:13:42;7.47;;;4.82;;
20462;SDS011;10390;53.566;9.980;2024-02-15T14:16:08;5.82;;;5.03;;
20462;SDS011;10390;53.566;9.980;2024-02-15T14:18:33;6.82;;;5.35;;
20462;SDS011;10390;53.566;9.980;2024-02-15T14:20:59;6.88;;;5.15;;
20462;SDS011;10390;53.566;9.980;2024-02-15T14:23:25;8.02;;;5.05;;
20462;SDS011;10390;53.566;9.980;2024-02-15T14:25:53;7.70;;;4.88;;
20462;SDS011;10390;53.566;9.980;2024-02-15T14:28:25;7.38;;;5.78;;
20462;SDS011;10390;53.566;9.980;2024-02-15T14:30:50;6.50;;;5.82;;
20462;SDS011;10390;53.566;9.980;2024-02-15T14:33:34;6.93;;;5.40;;
20462;SDS011;10390;53.566;9.980;2024-02-15T14:36:00;6.95;;;5.07;;
20462;SDS011;10390;53.566;9.980;2024-02-15T14:38:26;6.55;;;5.18;;
20462;SDS011;10390;53.566;9.980;2024-02-15T14:40:51;7.93;;;5.03;;
20462;SDS011;10390;53.566;9.980;2024-02-15T14:43:25;22.98;;;5.57;;
20462;SDS011;10390;53.566;9.980;2024-02-15T14:45:51;8.48;;;5.45;;
20462;SDS011;10390;53.566;9.980;2024-02-15T14:48:21;13.63;;;6.05;;
20462;SDS011;10390;53.566;9.980;2024-02-15T14:50:49;10.70;;;5.57;;
20462;SDS011;10390;53.566;9.980;2024-02-15T14:53:15;11.88;;;6.18;;
20462;SDS011;10390;53.566;9.980;2024-02-15T14:55:43;18.85;;;6.13;;
20462;SDS011;10390;53.566;9.980;2024-02-15T14:58:12;13.88;;;6.07;;
20462;SDS011;10390;53.566;9.980;2024-02-15T15:00:38;12.02;;;6.38;;
20462;SDS011;10390;53.566;9.980;2024-02-15T15:03:10;12.75;;;6.25;;
20462;SDS011;10390;53.566;9.980;2024-02-15T15:05:42;21.17;;;7.40;;
20462;SDS011;10390;53.566;9.980;2024-02-15T15:08:26;15.25;;;6.22;;
20462;SDS011;10390;53.566;9.980;2024-02-15T15:11:10;11.52;;;6.65;;
20462;SDS011;10390;53.566;9.980;2024-02-15T15:13:54;12.85;;;5.90;;